createdAt,value
2018-01-07T00:00:25.029Z,1009.32
2018-01-07T00:01:25.020Z,1009.33
2018-01-07T00:02:25.013Z,1009.32
2018-01-07T00:03:25.053Z,1009.35
2018-01-07T00:04:24.991Z,1009.36
2018-01-07T00:05:24.988Z,1009.37
2018-01-07T00:06:24.975Z,1009.40
2018-01-07T00:07:24.969Z,1009.38
2018-01-07T00:08:24.960Z,1009.43
2018-01-07T00:09:24.951Z,1009.48
2018-01-07T00:10:24.946Z,1009.46
2018-01-07T00:11:24.938Z,1009.48
2018-01-07T00:12:24.934Z,1009.49
2018-01-07T00:13:24.920Z,1009.51
2018-01-07T00:14:24.914Z,1009.50
2018-01-07T00:15:24.905Z,1009.50
2018-01-07T00:16:24.897Z,1009.53
2018-01-07T00:17:24.900Z,1009.55
2018-01-07T00:18:24.889Z,1009.54
2018-01-07T00:19:24.872Z,1009.56
2018-01-07T00:20:24.861Z,1009.56
2018-01-07T00:21:24.854Z,1009.59
2018-01-07T00:22:24.846Z,1009.59
2018-01-07T00:23:24.838Z,1009.58
2018-01-07T00:24:24.828Z,1009.59
2018-01-07T00:25:24.820Z,1009.58
2018-01-07T00:26:24.807Z,1009.62
2018-01-07T00:27:24.807Z,1009.57
2018-01-07T00:28:24.801Z,1009.61
2018-01-07T00:29:24.799Z,1009.61
2018-01-07T00:30:24.790Z,1009.59
2018-01-07T00:31:24.776Z,1009.60
2018-01-07T00:32:24.768Z,1009.62
2018-01-07T00:33:24.760Z,1009.61
2018-01-07T00:34:24.750Z,1009.62
2018-01-07T00:35:24.737Z,1009.62
2018-01-07T00:36:24.729Z,1009.62
2018-01-07T00:37:24.727Z,1009.60
2018-01-07T00:38:24.715Z,1009.59
2018-01-07T00:39:24.710Z,1009.64
2018-01-07T00:40:24.697Z,1009.67
2018-01-07T00:41:24.690Z,1009.67
2018-01-07T00:42:24.682Z,1009.69
2018-01-07T00:43:24.677Z,1009.70
2018-01-07T00:44:24.673Z,1009.74
2018-01-07T00:45:24.662Z,1009.78
2018-01-07T00:46:24.664Z,1009.76
2018-01-07T00:47:24.641Z,1009.77
2018-01-07T00:48:24.635Z,1009.77
2018-01-07T00:49:24.627Z,1009.78
2018-01-07T00:50:24.623Z,1009.79
2018-01-07T00:51:24.614Z,1009.86
2018-01-07T00:52:24.602Z,1009.83
2018-01-07T00:53:24.595Z,1009.88
2018-01-07T00:54:24.583Z,1009.89
2018-01-07T00:55:24.584Z,1009.87
2018-01-07T00:56:24.572Z,1009.89
2018-01-07T00:57:24.567Z,1009.91
2018-01-07T00:58:24.557Z,1009.94
2018-01-07T00:59:24.542Z,1009.98
2018-01-07T01:00:24.532Z,1009.99
2018-01-07T01:01:24.524Z,1010.02
2018-01-07T01:02:24.521Z,1009.98
2018-01-07T01:03:24.513Z,1010.00
2018-01-07T01:04:24.503Z,1010.05
2018-01-07T01:05:24.496Z,1010.05
2018-01-07T01:06:24.497Z,1010.02
2018-01-07T01:07:24.480Z,1010.04
2018-01-07T01:08:24.473Z,1010.06
2018-01-07T01:09:24.467Z,1010.06
2018-01-07T01:10:24.458Z,1010.09
2018-01-07T01:11:24.451Z,1010.08
2018-01-07T01:12:24.442Z,1010.12
2018-01-07T01:13:24.434Z,1010.13
2018-01-07T01:14:24.424Z,1010.14
2018-01-07T01:15:24.408Z,1010.15
2018-01-07T01:16:24.405Z,1010.19
2018-01-07T01:17:24.395Z,1010.17
2018-01-07T01:18:24.389Z,1010.20
2018-01-07T01:19:24.379Z,1010.23
2018-01-07T01:20:24.374Z,1010.27
2018-01-07T01:21:24.363Z,1010.25
2018-01-07T01:22:24.356Z,1010.31
2018-01-07T01:23:24.350Z,1010.29
2018-01-07T01:24:24.348Z,1010.29
2018-01-07T01:25:24.335Z,1010.31
2018-01-07T01:26:24.326Z,1010.31
2018-01-07T01:27:24.316Z,1010.39
2018-01-07T01:28:24.309Z,1010.40
2018-01-07T01:29:24.300Z,1010.40
2018-01-07T01:30:24.293Z,1010.42
2018-01-07T01:31:24.281Z,1010.43
2018-01-07T01:32:24.273Z,1010.46
2018-01-07T01:33:24.265Z,1010.48
2018-01-07T01:34:24.257Z,1010.53
2018-01-07T01:35:24.248Z,1010.55
2018-01-07T01:36:24.239Z,1010.57
2018-01-07T01:37:24.232Z,1010.59
2018-01-07T01:38:24.225Z,1010.63
2018-01-07T01:39:24.222Z,1010.64
2018-01-07T01:40:24.208Z,1010.66
2018-01-07T01:41:24.204Z,1010.68
2018-01-07T01:42:24.237Z,1010.71
2018-01-07T01:43:24.183Z,1010.73
2018-01-07T01:44:24.195Z,1010.72
2018-01-07T01:45:24.184Z,1010.72
2018-01-07T01:46:24.163Z,1010.78
2018-01-07T01:47:24.152Z,1010.80
2018-01-07T01:48:24.141Z,1010.82
2018-01-07T01:49:24.133Z,1010.84
2018-01-07T01:50:24.125Z,1010.81
2018-01-07T01:51:24.122Z,1010.88
2018-01-07T01:52:24.110Z,1010.86
2018-01-07T01:53:24.100Z,1010.88
2018-01-07T01:54:24.092Z,1010.88
2018-01-07T01:55:24.093Z,1010.94
2018-01-07T01:56:24.079Z,1010.94
2018-01-07T01:57:24.070Z,1010.90
2018-01-07T01:58:24.061Z,1010.92
2018-01-07T01:59:24.051Z,1010.96
2018-01-07T02:00:24.042Z,1010.94
2018-01-07T02:01:24.036Z,1010.98
2018-01-07T02:02:24.034Z,1010.96
2018-01-07T02:03:24.022Z,1010.97
2018-01-07T02:04:24.017Z,1010.97
2018-01-07T02:05:24.002Z,1011.01
2018-01-07T02:06:23.999Z,1011.03
2018-01-07T02:07:23.991Z,1011.04
2018-01-07T02:08:23.984Z,1011.02
2018-01-07T02:09:23.974Z,1011.04
2018-01-07T02:10:23.968Z,1011.09
2018-01-07T02:11:23.955Z,1011.08
2018-01-07T02:12:23.946Z,1011.09
2018-01-07T02:13:23.941Z,1011.14
2018-01-07T02:14:23.932Z,1011.12
2018-01-07T02:15:23.922Z,1011.14
2018-01-07T02:16:23.913Z,1011.17
2018-01-07T02:17:23.905Z,1011.17
2018-01-07T02:18:23.898Z,1011.16
2018-01-07T02:19:23.890Z,1011.18
2018-01-07T02:20:23.885Z,1011.25
2018-01-07T02:21:23.875Z,1011.22
2018-01-07T02:22:23.867Z,1011.26
2018-01-07T02:23:23.858Z,1011.26
2018-01-07T02:24:23.852Z,1011.27
2018-01-07T02:25:24.454Z,1011.29
2018-01-07T02:26:23.831Z,1011.27
2018-01-07T02:27:23.822Z,1011.32
2018-01-07T02:28:23.814Z,1011.35
2018-01-07T02:29:23.805Z,1011.29
2018-01-07T02:30:23.797Z,1011.32
2018-01-07T02:31:23.791Z,1011.32
2018-01-07T02:32:23.784Z,1011.35
2018-01-07T02:33:23.775Z,1011.34
2018-01-07T02:34:23.780Z,1011.34
2018-01-07T02:35:23.759Z,1011.35
2018-01-07T02:36:23.753Z,1011.39
2018-01-07T02:37:23.743Z,1011.39
2018-01-07T02:38:23.737Z,1011.36
2018-01-07T02:39:23.724Z,1011.39
2018-01-07T02:40:23.714Z,1011.41
2018-01-07T02:41:23.718Z,1011.41
2018-01-07T02:42:23.705Z,1011.38
2018-01-07T02:43:23.697Z,1011.38
2018-01-07T02:44:23.684Z,1011.42
2018-01-07T02:45:23.676Z,1011.39
2018-01-07T02:46:23.667Z,1011.43
2018-01-07T02:47:23.659Z,1011.45
2018-01-07T02:48:23.650Z,1011.49
2018-01-07T02:49:23.683Z,1011.52
2018-01-07T02:50:23.636Z,1011.51
2018-01-07T02:51:23.627Z,1011.58
2018-01-07T02:52:23.621Z,1011.56
2018-01-07T02:53:23.617Z,1011.58
2018-01-07T02:54:23.610Z,1011.59
2018-01-07T02:55:23.593Z,1011.56
2018-01-07T02:56:23.589Z,1011.61
2018-01-07T02:57:23.582Z,1011.61
2018-01-07T02:58:23.571Z,1011.61
2018-01-07T02:59:23.560Z,1011.63
2018-01-07T03:00:23.552Z,1011.66
2018-01-07T03:01:23.542Z,1011.65
2018-01-07T03:02:23.535Z,1011.72
2018-01-07T03:03:23.530Z,1011.75
2018-01-07T03:04:23.522Z,1011.73
2018-01-07T03:05:23.515Z,1011.72
2018-01-07T03:06:23.510Z,1011.74
2018-01-07T03:07:23.498Z,1011.78
2018-01-07T03:08:23.486Z,1011.78
2018-01-07T03:09:23.477Z,1011.77
2018-01-07T03:10:23.471Z,1011.79
2018-01-07T03:11:23.459Z,1011.81
2018-01-07T03:12:23.451Z,1011.81
2018-01-07T03:13:23.446Z,1011.84
2018-01-07T03:14:23.434Z,1011.87
2018-01-07T03:15:23.432Z,1011.91
2018-01-07T03:16:23.422Z,1011.91
2018-01-07T03:17:23.414Z,1011.91
2018-01-07T03:18:23.407Z,1011.90
2018-01-07T03:19:23.396Z,1011.96
2018-01-07T03:20:23.392Z,1011.96
2018-01-07T03:21:23.382Z,1011.94
2018-01-07T03:22:23.373Z,1011.98
2018-01-07T03:23:23.360Z,1011.96
2018-01-07T03:24:23.352Z,1011.98
2018-01-07T03:25:23.343Z,1012.00
2018-01-07T03:26:23.335Z,1012.06
2018-01-07T03:27:23.329Z,1012.03
2018-01-07T03:28:23.320Z,1012.07
2018-01-07T03:29:23.315Z,1012.03
2018-01-07T03:30:23.302Z,1012.05
2018-01-07T03:31:23.298Z,1012.04
2018-01-07T03:32:23.289Z,1012.04
2018-01-07T03:33:23.284Z,1012.11
2018-01-07T03:34:23.277Z,1012.12
2018-01-07T03:35:23.266Z,1012.11
2018-01-07T03:36:23.255Z,1012.10
2018-01-07T03:37:23.245Z,1012.10
2018-01-07T03:38:23.240Z,1012.04
2018-01-07T03:39:23.227Z,1012.03
2018-01-07T03:40:23.218Z,1011.99
2018-01-07T03:41:23.211Z,1011.99
2018-01-07T03:42:23.203Z,1011.98
2018-01-07T03:43:23.195Z,1011.99
2018-01-07T03:44:23.182Z,1012.03
2018-01-07T03:45:23.177Z,1012.02
2018-01-07T03:46:23.172Z,1012.05
2018-01-07T03:47:23.168Z,1012.04
2018-01-07T03:48:23.159Z,1012.03
2018-01-07T03:49:23.149Z,1012.04
2018-01-07T03:50:23.138Z,1012.10
2018-01-07T03:51:23.126Z,1012.09
2018-01-07T03:52:23.123Z,1012.07
2018-01-07T03:53:23.113Z,1012.10
2018-01-07T03:54:23.105Z,1012.10
2018-01-07T03:55:23.093Z,1012.15
2018-01-07T03:56:23.085Z,1012.16
2018-01-07T03:57:23.074Z,1012.19
2018-01-07T03:58:23.065Z,1012.19
2018-01-07T03:59:23.061Z,1012.17
2018-01-07T04:00:23.050Z,1012.18
2018-01-07T04:01:23.042Z,1012.16
2018-01-07T04:02:23.034Z,1012.15
2018-01-07T04:03:23.030Z,1012.15
2018-01-07T04:04:23.020Z,1012.13
2018-01-07T04:05:23.015Z,1012.14
2018-01-07T04:06:23.004Z,1012.12
2018-01-07T04:07:22.995Z,1012.18
2018-01-07T04:08:22.988Z,1012.14
2018-01-07T04:09:22.978Z,1012.19
2018-01-07T04:10:22.970Z,1012.20
2018-01-07T04:11:22.956Z,1012.18
2018-01-07T04:12:22.949Z,1012.20
2018-01-07T04:13:22.946Z,1012.24
2018-01-07T04:14:22.935Z,1012.27
2018-01-07T04:15:22.924Z,1012.30
2018-01-07T04:16:22.918Z,1012.30
2018-01-07T04:17:22.910Z,1012.29
2018-01-07T04:18:22.900Z,1012.28
2018-01-07T04:19:22.889Z,1012.30
2018-01-07T04:20:22.888Z,1012.23
2018-01-07T04:21:22.875Z,1012.26
2018-01-07T04:22:22.868Z,1012.26
2018-01-07T04:23:22.872Z,1012.24
2018-01-07T04:24:22.846Z,1012.24
2018-01-07T04:25:22.834Z,1012.31
2018-01-07T04:26:22.841Z,1012.24
2018-01-07T04:27:22.822Z,1012.24
2018-01-07T04:28:22.813Z,1012.21
2018-01-07T04:29:22.806Z,1012.17
2018-01-07T04:30:22.796Z,1012.18
2018-01-07T04:31:22.780Z,1012.16
2018-01-07T04:32:22.771Z,1012.18
2018-01-07T04:33:22.774Z,1012.22
2018-01-07T04:34:22.761Z,1012.25
2018-01-07T04:35:22.755Z,1012.27
2018-01-07T04:36:22.750Z,1012.29
2018-01-07T04:37:22.743Z,1012.27
2018-01-07T04:38:22.730Z,1012.32
2018-01-07T04:39:22.724Z,1012.32
2018-01-07T04:40:22.714Z,1012.36
2018-01-07T04:41:22.704Z,1012.37
2018-01-07T04:42:22.692Z,1012.37
2018-01-07T04:43:22.682Z,1012.43
2018-01-07T04:44:22.673Z,1012.43
2018-01-07T04:45:22.665Z,1012.46
2018-01-07T04:46:22.658Z,1012.40
2018-01-07T04:47:22.648Z,1012.43
2018-01-07T04:48:22.640Z,1012.41
2018-01-07T04:49:22.633Z,1012.46
2018-01-07T04:50:22.627Z,1012.47
2018-01-07T04:51:22.616Z,1012.54
2018-01-07T04:52:22.607Z,1012.52
2018-01-07T04:53:22.602Z,1012.58
2018-01-07T04:54:22.594Z,1012.62
2018-01-07T04:55:22.573Z,1012.59
2018-01-07T04:56:22.604Z,1012.61
2018-01-07T04:57:22.567Z,1012.60
2018-01-07T04:58:22.562Z,1012.60
2018-01-07T04:59:22.546Z,1012.66
2018-01-07T05:00:22.538Z,1012.64
2018-01-07T05:01:22.544Z,1012.59
2018-01-07T05:02:22.524Z,1012.57
2018-01-07T05:03:22.512Z,1012.55
2018-01-07T05:04:22.503Z,1012.54
2018-01-07T05:05:22.493Z,1012.51
2018-01-07T05:06:22.486Z,1012.52
2018-01-07T05:07:22.480Z,1012.56
2018-01-07T05:08:22.476Z,1012.55
2018-01-07T05:09:22.465Z,1012.55
2018-01-07T05:10:22.457Z,1012.56
2018-01-07T05:11:22.447Z,1012.61
2018-01-07T05:12:22.436Z,1012.61
2018-01-07T05:13:22.429Z,1012.62
2018-01-07T05:14:22.420Z,1012.62
2018-01-07T05:15:22.415Z,1012.66
2018-01-07T05:16:22.403Z,1012.66
2018-01-07T05:17:22.398Z,1012.62
2018-01-07T05:18:22.388Z,1012.65
2018-01-07T05:19:22.378Z,1012.68
2018-01-07T05:20:22.367Z,1012.73
2018-01-07T05:21:22.356Z,1012.77
2018-01-07T05:22:22.364Z,1012.71
2018-01-07T05:23:22.341Z,1012.71
2018-01-07T05:24:22.332Z,1012.74
2018-01-07T05:25:22.329Z,1012.74
2018-01-07T05:26:22.316Z,1012.73
2018-01-07T05:27:22.305Z,1012.79
2018-01-07T05:28:22.296Z,1012.81
2018-01-07T05:29:22.290Z,1012.80
2018-01-07T05:30:22.280Z,1012.80
2018-01-07T05:31:22.277Z,1012.77
2018-01-07T05:32:22.267Z,1012.78
2018-01-07T05:33:22.258Z,1012.78
2018-01-07T05:34:22.252Z,1012.80
2018-01-07T05:35:22.238Z,1012.85
2018-01-07T05:36:22.233Z,1012.93
2018-01-07T05:37:22.224Z,1012.92
2018-01-07T05:38:22.215Z,1012.97
2018-01-07T05:39:22.203Z,1012.98
2018-01-07T05:40:22.194Z,1012.97
2018-01-07T05:41:22.190Z,1012.98
2018-01-07T05:42:22.178Z,1012.97
2018-01-07T05:43:22.169Z,1012.91
2018-01-07T05:44:22.163Z,1012.95
2018-01-07T05:45:22.155Z,1012.94
2018-01-07T05:46:22.146Z,1012.90
2018-01-07T05:47:22.144Z,1012.95
2018-01-07T05:48:22.129Z,1012.97
2018-01-07T05:49:22.120Z,1012.97
2018-01-07T05:50:22.114Z,1012.98
2018-01-07T05:51:22.106Z,1013.03
2018-01-07T05:52:22.096Z,1013.05
2018-01-07T05:53:22.088Z,1013.07
2018-01-07T05:54:22.081Z,1013.10
2018-01-07T05:55:22.067Z,1013.14
2018-01-07T05:56:22.060Z,1013.13
2018-01-07T05:57:22.051Z,1013.15
2018-01-07T05:58:22.045Z,1013.15
2018-01-07T05:59:22.035Z,1013.22
2018-01-07T06:00:22.031Z,1013.21
2018-01-07T06:01:22.020Z,1013.22
2018-01-07T06:02:22.007Z,1013.23
2018-01-07T06:03:22.001Z,1013.30
2018-01-07T06:04:22.527Z,1013.28
2018-01-07T06:05:21.985Z,1013.31
2018-01-07T06:06:21.976Z,1013.32
2018-01-07T06:07:21.972Z,1013.32
2018-01-07T06:08:21.961Z,1013.33
2018-01-07T06:09:21.952Z,1013.39
2018-01-07T06:10:21.942Z,1013.38
2018-01-07T06:11:21.932Z,1013.40
2018-01-07T06:12:21.921Z,1013.43
2018-01-07T06:13:21.914Z,1013.39
2018-01-07T06:14:21.906Z,1013.42
2018-01-07T06:15:21.910Z,1013.39
2018-01-07T06:16:21.892Z,1013.40
2018-01-07T06:17:21.883Z,1013.41
2018-01-07T06:18:21.876Z,1013.43
2018-01-07T06:19:21.864Z,1013.44
2018-01-07T06:20:21.855Z,1013.43
2018-01-07T06:21:21.847Z,1013.43
2018-01-07T06:22:21.838Z,1013.46
2018-01-07T06:23:21.829Z,1013.47
2018-01-07T06:24:21.822Z,1013.48
2018-01-07T06:25:21.812Z,1013.50
2018-01-07T06:26:21.806Z,1013.50
2018-01-07T06:27:21.798Z,1013.53
2018-01-07T06:28:21.791Z,1013.54
2018-01-07T06:29:21.785Z,1013.55
2018-01-07T06:30:21.777Z,1013.61
2018-01-07T06:31:21.766Z,1013.59
2018-01-07T06:32:21.758Z,1013.62
2018-01-07T06:33:21.750Z,1013.61
2018-01-07T06:34:21.739Z,1013.63
2018-01-07T06:35:21.727Z,1013.63
2018-01-07T06:36:21.721Z,1013.67
2018-01-07T06:37:21.714Z,1013.64
2018-01-07T06:38:21.704Z,1013.72
2018-01-07T06:39:21.696Z,1013.77
2018-01-07T06:40:21.687Z,1013.78
2018-01-07T06:41:21.679Z,1013.81
2018-01-07T06:42:21.670Z,1013.89
2018-01-07T06:43:21.661Z,1013.85
2018-01-07T06:44:21.651Z,1013.87
2018-01-07T06:45:21.647Z,1013.90
2018-01-07T06:46:21.645Z,1013.96
2018-01-07T06:47:21.623Z,1013.96
2018-01-07T06:48:21.622Z,1013.97
2018-01-07T06:49:21.613Z,1014.00
2018-01-07T06:50:21.613Z,1013.98
2018-01-07T06:51:21.592Z,1013.99
2018-01-07T06:52:21.584Z,1014.00
2018-01-07T06:53:21.576Z,1014.02
2018-01-07T06:54:21.572Z,1014.03
2018-01-07T06:55:21.558Z,1014.05
2018-01-07T06:56:21.551Z,1014.08
2018-01-07T06:57:21.544Z,1014.09
2018-01-07T06:58:21.533Z,1014.13
2018-01-07T06:59:21.542Z,1014.13
2018-01-07T07:00:21.519Z,1014.20
2018-01-07T07:01:21.513Z,1014.20
2018-01-07T07:02:21.503Z,1014.17
2018-01-07T07:03:21.497Z,1014.24
2018-01-07T07:04:21.483Z,1014.24
2018-01-07T07:05:21.480Z,1014.34
2018-01-07T07:06:21.472Z,1014.36
2018-01-07T07:07:21.460Z,1014.36
2018-01-07T07:08:21.450Z,1014.42
2018-01-07T07:09:21.441Z,1014.43
2018-01-07T07:10:21.434Z,1014.52
2018-01-07T07:11:21.424Z,1014.53
2018-01-07T07:12:21.413Z,1014.52
2018-01-07T07:13:21.407Z,1014.55
2018-01-07T07:14:21.398Z,1014.55
2018-01-07T07:15:21.384Z,1014.51
2018-01-07T07:16:21.383Z,1014.51
2018-01-07T07:17:21.376Z,1014.52
2018-01-07T07:18:21.375Z,1014.52
2018-01-07T07:19:21.352Z,1014.52
2018-01-07T07:20:21.349Z,1014.52
2018-01-07T07:21:21.337Z,1014.54
2018-01-07T07:22:21.330Z,1014.55
2018-01-07T07:23:21.326Z,1014.58
2018-01-07T07:24:21.317Z,1014.58
2018-01-07T07:25:21.310Z,1014.58
2018-01-07T07:26:21.301Z,1014.59
2018-01-07T07:27:21.292Z,1014.65
2018-01-07T07:28:21.281Z,1014.70
2018-01-07T07:29:21.288Z,1014.73
2018-01-07T07:30:21.266Z,1014.76
2018-01-07T07:31:21.254Z,1014.77
2018-01-07T07:32:21.242Z,1014.81
2018-01-07T07:33:21.235Z,1014.81
2018-01-07T07:34:22.053Z,1014.80
2018-01-07T07:35:21.218Z,1014.82
2018-01-07T07:36:21.214Z,1014.82
2018-01-07T07:37:21.202Z,1014.84
2018-01-07T07:38:21.202Z,1014.86
2018-01-07T07:39:21.189Z,1014.90
2018-01-07T07:40:21.181Z,1014.90
2018-01-07T07:41:21.173Z,1014.94
2018-01-07T07:42:21.162Z,1014.91
2018-01-07T07:43:21.152Z,1014.92
2018-01-07T07:44:21.145Z,1014.94
2018-01-07T07:45:21.130Z,1014.94
2018-01-07T07:46:21.128Z,1014.97
2018-01-07T07:47:21.116Z,1014.97
2018-01-07T07:48:21.111Z,1015.00
2018-01-07T07:49:21.097Z,1015.00
2018-01-07T07:50:21.093Z,1014.97
2018-01-07T07:51:21.599Z,1015.01
2018-01-07T07:52:21.072Z,1015.08
2018-01-07T07:53:21.063Z,1015.07
2018-01-07T07:54:21.055Z,1015.11
2018-01-07T07:55:21.049Z,1015.08
2018-01-07T07:56:21.044Z,1015.11
2018-01-07T07:57:21.026Z,1015.17
2018-01-07T07:58:21.030Z,1015.15
2018-01-07T07:59:21.016Z,1015.18
2018-01-07T08:00:21.006Z,1015.21
2018-01-07T08:01:20.997Z,1015.24
2018-01-07T08:02:20.990Z,1015.27
2018-01-07T08:03:20.976Z,1015.21
2018-01-07T08:04:20.970Z,1015.25
2018-01-07T08:05:20.959Z,1015.22
2018-01-07T08:06:20.952Z,1015.25
2018-01-07T08:07:20.939Z,1015.25
2018-01-07T08:08:20.933Z,1015.24
2018-01-07T08:09:20.926Z,1015.27
2018-01-07T08:10:20.921Z,1015.33
2018-01-07T08:11:20.916Z,1015.37
2018-01-07T08:12:20.916Z,1015.36
2018-01-07T08:13:20.895Z,1015.36
2018-01-07T08:14:20.884Z,1015.38
2018-01-07T08:15:20.875Z,1015.40
2018-01-07T08:16:20.872Z,1015.41
2018-01-07T08:17:20.861Z,1015.40
2018-01-07T08:18:20.852Z,1015.47
2018-01-07T08:19:20.837Z,1015.48
2018-01-07T08:20:20.829Z,1015.49
2018-01-07T08:21:20.823Z,1015.56
2018-01-07T08:22:20.814Z,1015.49
2018-01-07T08:23:20.805Z,1015.55
2018-01-07T08:24:21.575Z,1015.54
2018-01-07T08:25:20.791Z,1015.57
2018-01-07T08:26:20.781Z,1015.56
2018-01-07T08:27:20.777Z,1015.60
2018-01-07T08:28:20.770Z,1015.57
2018-01-07T08:29:20.760Z,1015.58
2018-01-07T08:30:20.747Z,1015.67
2018-01-07T08:31:20.740Z,1015.69
2018-01-07T08:32:20.739Z,1015.66
2018-01-07T08:33:20.723Z,1015.77
2018-01-07T08:34:20.715Z,1015.75
2018-01-07T08:35:20.699Z,1015.74
2018-01-07T08:36:20.695Z,1015.79
2018-01-07T08:37:20.687Z,1015.72
2018-01-07T08:38:20.677Z,1015.75
2018-01-07T08:39:20.680Z,1015.72
2018-01-07T08:40:20.660Z,1015.78
2018-01-07T08:41:20.653Z,1015.77
2018-01-07T08:42:20.643Z,1015.81
2018-01-07T08:43:20.645Z,1015.79
2018-01-07T08:44:20.630Z,1015.86
2018-01-07T08:45:20.621Z,1015.86
2018-01-07T08:46:20.615Z,1015.81
2018-01-07T08:47:20.605Z,1015.87
2018-01-07T08:48:20.596Z,1015.85
2018-01-07T08:49:20.590Z,1015.90
2018-01-07T08:50:20.586Z,1015.91
2018-01-07T08:51:20.566Z,1015.98
2018-01-07T08:52:20.558Z,1015.94
2018-01-07T08:53:20.552Z,1015.97
2018-01-07T08:54:20.542Z,1015.96
2018-01-07T08:55:20.537Z,1015.98
2018-01-07T08:56:20.525Z,1016.02
2018-01-07T08:57:20.519Z,1016.01
2018-01-07T08:58:20.510Z,1016.01
2018-01-07T08:59:20.504Z,1016.06
2018-01-07T09:00:20.500Z,1015.99
2018-01-07T09:01:20.650Z,1016.04
2018-01-07T09:02:20.480Z,1016.03
2018-01-07T09:03:20.472Z,1016.06
2018-01-07T09:04:20.464Z,1016.07
2018-01-07T09:05:20.456Z,1016.08
2018-01-07T09:06:20.444Z,1016.07
2018-01-07T09:07:20.435Z,1016.13
2018-01-07T09:08:20.469Z,1016.11
2018-01-07T09:09:20.418Z,1016.19
2018-01-07T09:10:20.415Z,1016.18
2018-01-07T09:11:20.399Z,1016.25
2018-01-07T09:12:20.393Z,1016.28
2018-01-07T09:13:20.387Z,1016.28
2018-01-07T09:14:20.380Z,1016.30
2018-01-07T09:15:20.372Z,1016.30
2018-01-07T09:16:20.363Z,1016.36
2018-01-07T09:17:20.356Z,1016.35
2018-01-07T09:18:20.345Z,1016.31
2018-01-07T09:19:20.336Z,1016.38
2018-01-07T09:20:20.333Z,1016.38
2018-01-07T09:21:20.322Z,1016.40
2018-01-07T09:22:20.310Z,1016.43
2018-01-07T09:23:20.302Z,1016.42
2018-01-07T09:24:20.294Z,1016.39
2018-01-07T09:25:20.291Z,1016.41
2018-01-07T09:26:20.280Z,1016.44
2018-01-07T09:27:20.274Z,1016.43
2018-01-07T09:28:20.268Z,1016.44
2018-01-07T09:29:20.255Z,1016.44
2018-01-07T09:30:20.260Z,1016.46
2018-01-07T09:31:20.239Z,1016.45
2018-01-07T09:32:20.227Z,1016.49
2018-01-07T09:33:20.222Z,1016.46
2018-01-07T09:34:20.218Z,1016.49
2018-01-07T09:35:20.204Z,1016.48
2018-01-07T09:36:20.225Z,1016.52
2018-01-07T09:37:20.190Z,1016.57
2018-01-07T09:38:20.183Z,1016.62
2018-01-07T09:39:20.174Z,1016.59
2018-01-07T09:40:20.213Z,1016.57
2018-01-07T09:41:20.160Z,1016.61
2018-01-07T09:42:20.156Z,1016.65
2018-01-07T09:43:20.139Z,1016.65
2018-01-07T09:44:20.137Z,1016.68
2018-01-07T09:45:20.131Z,1016.68
2018-01-07T09:46:20.122Z,1016.74
2018-01-07T09:47:20.113Z,1016.77
2018-01-07T09:48:20.102Z,1016.79
2018-01-07T09:49:20.097Z,1016.79
2018-01-07T09:50:20.093Z,1016.71
2018-01-07T09:51:20.080Z,1016.76
2018-01-07T09:52:20.076Z,1016.69
2018-01-07T09:53:20.064Z,1016.75
2018-01-07T09:54:20.055Z,1016.78
2018-01-07T09:55:20.050Z,1016.72
2018-01-07T09:56:20.044Z,1016.73
2018-01-07T09:57:20.040Z,1016.80
2018-01-07T09:58:20.027Z,1016.79
2018-01-07T09:59:20.020Z,1016.80
2018-01-07T10:00:20.016Z,1016.83
2018-01-07T10:01:20.823Z,1016.83
2018-01-07T10:02:19.993Z,1016.84
2018-01-07T10:03:19.986Z,1016.84
2018-01-07T10:04:19.979Z,1016.87
2018-01-07T10:05:20.549Z,1016.82
2018-01-07T10:06:19.966Z,1016.88
2018-01-07T10:07:19.963Z,1016.91
2018-01-07T10:08:21.466Z,1016.88
2018-01-07T10:09:19.939Z,1016.90
2018-01-07T10:10:19.937Z,1016.87
2018-01-07T10:11:19.927Z,1016.91
2018-01-07T10:12:20.403Z,1016.90
2018-01-07T10:13:19.912Z,1016.90
2018-01-07T10:14:19.899Z,1016.96
2018-01-07T10:15:19.905Z,1016.93
2018-01-07T10:16:19.887Z,1016.92
2018-01-07T10:17:19.897Z,1016.92
2018-01-07T10:18:19.870Z,1016.95
2018-01-07T10:19:19.861Z,1016.95
2018-01-07T10:20:19.855Z,1016.91
2018-01-07T10:21:19.846Z,1016.99
2018-01-07T10:22:19.838Z,1016.96
2018-01-07T10:23:19.842Z,1016.98
2018-01-07T10:24:19.821Z,1017.02
2018-01-07T10:25:19.814Z,1016.98
2018-01-07T10:26:19.813Z,1017.02
2018-01-07T10:27:19.810Z,1017.02
2018-01-07T10:28:19.809Z,1017.06
2018-01-07T10:29:19.792Z,1017.04
2018-01-07T10:30:19.781Z,1017.05
2018-01-07T10:31:19.801Z,1017.00
2018-01-07T10:32:19.771Z,1017.04
2018-01-07T10:33:19.757Z,1017.01
2018-01-07T10:34:19.749Z,1017.02
2018-01-07T10:35:19.741Z,1016.98
2018-01-07T10:36:19.734Z,1016.96
2018-01-07T10:37:23.544Z,1016.95
2018-01-07T10:38:19.721Z,1017.00
2018-01-07T10:39:19.711Z,1016.95
2018-01-07T10:40:19.705Z,1016.95
2018-01-07T10:41:19.694Z,1016.96
2018-01-07T10:42:19.689Z,1016.92
2018-01-07T10:43:19.676Z,1017.01
2018-01-07T10:44:19.669Z,1016.96
2018-01-07T10:45:19.666Z,1016.93
2018-01-07T10:46:19.654Z,1016.96
2018-01-07T10:47:19.644Z,1016.94
2018-01-07T10:48:19.653Z,1016.95
2018-01-07T10:49:19.629Z,1017.02
2018-01-07T10:50:19.634Z,1017.02
2018-01-07T10:51:19.617Z,1016.98
2018-01-07T10:52:19.610Z,1016.95
2018-01-07T10:53:19.602Z,1016.99
2018-01-07T10:54:19.594Z,1016.96
2018-01-07T10:55:19.589Z,1017.00
2018-01-07T10:56:19.583Z,1016.96
2018-01-07T10:57:19.575Z,1016.93
2018-01-07T10:58:19.565Z,1016.97
2018-01-07T10:59:19.553Z,1017.01
2018-01-07T11:00:19.550Z,1017.00
2018-01-07T11:01:19.528Z,1017.03
2018-01-07T11:02:19.530Z,1017.01
2018-01-07T11:03:19.522Z,1017.00
2018-01-07T11:04:21.707Z,1016.98
2018-01-07T11:05:19.505Z,1017.03
2018-01-07T11:06:19.497Z,1016.99
2018-01-07T11:07:19.500Z,1017.02
2018-01-07T11:08:19.485Z,1017.06
2018-01-07T11:09:19.481Z,1017.01
2018-01-07T11:10:19.470Z,1017.02
2018-01-07T11:11:23.572Z,1017.03
2018-01-07T11:12:19.456Z,1017.04
2018-01-07T11:13:19.449Z,1016.98
2018-01-07T11:14:19.436Z,1017.02
2018-01-07T11:15:19.429Z,1017.05
2018-01-07T11:16:19.418Z,1017.07
2018-01-07T11:17:19.413Z,1017.06
2018-01-07T11:18:19.404Z,1017.06
2018-01-07T11:19:19.396Z,1017.04
2018-01-07T11:20:19.388Z,1017.08
2018-01-07T11:21:19.381Z,1017.08
2018-01-07T11:22:19.375Z,1017.06
2018-01-07T11:23:19.367Z,1017.07
2018-01-07T11:24:19.369Z,1017.06
2018-01-07T11:25:19.353Z,1017.05
2018-01-07T11:26:19.368Z,1017.07
2018-01-07T11:27:19.336Z,1017.06
2018-01-07T11:28:19.330Z,1017.08
2018-01-07T11:29:19.322Z,1017.12
2018-01-07T11:30:19.315Z,1017.08
2018-01-07T11:31:19.484Z,1017.06
2018-01-07T11:32:19.297Z,1017.11
2018-01-07T11:33:19.289Z,1017.08
2018-01-07T11:34:19.285Z,1017.00
2018-01-07T11:35:19.271Z,1017.03
2018-01-07T11:36:19.268Z,1017.04
2018-01-07T11:37:19.257Z,1017.02
2018-01-07T11:38:19.254Z,1017.02
2018-01-07T11:39:19.245Z,1016.98
2018-01-07T11:40:19.246Z,1016.99
2018-01-07T11:41:19.226Z,1016.98
2018-01-07T11:42:19.219Z,1017.00
2018-01-07T11:43:19.211Z,1016.96
2018-01-07T11:44:19.202Z,1016.96
2018-01-07T11:45:19.198Z,1016.99
2018-01-07T11:46:19.200Z,1016.98
2018-01-07T11:47:19.184Z,1016.98
2018-01-07T11:48:19.176Z,1017.00
2018-01-07T11:49:19.168Z,1017.00
2018-01-07T11:50:19.159Z,1017.02
2018-01-07T11:51:19.154Z,1017.01
2018-01-07T11:52:19.143Z,1017.02
2018-01-07T11:53:19.138Z,1017.04
2018-01-07T11:54:19.129Z,1017.04
2018-01-07T11:55:19.148Z,1016.95
2018-01-07T11:56:19.110Z,1016.93
2018-01-07T11:57:19.106Z,1016.98
2018-01-07T11:58:19.096Z,1016.99
2018-01-07T11:59:19.085Z,1016.94
2018-01-07T12:00:19.078Z,1016.94
2018-01-07T12:01:19.072Z,1016.94
2018-01-07T12:02:19.066Z,1016.88
2018-01-07T12:03:19.060Z,1016.91
2018-01-07T12:04:19.054Z,1016.84
2018-01-07T12:05:19.046Z,1016.84